sensor_id;sensor_type;location;lat;lon;timestamp;pressure;altitude;pressure_sealevel;temperature;humidity
55466;BME280;41329;41.594;23.810;2024-02-16T00:01:01;95714.19;;;4.94;54.88
55466;BME280;41329;41.594;23.810;2024-02-16T00:03:27;95711.16;;;4.87;54.91
55466;BME280;41329;41.594;23.810;2024-02-16T00:05:53;95701.97;;;4.83;54.48
55466;BME280;41329;41.594;23.810;2024-02-16T00:08:19;95710.03;;;4.88;54.11
55466;BME280;41329;41.594;23.810;2024-02-16T00:10:45;95730.81;;;4.98;53.97
55466;BME280;41329;41.594;23.810;2024-02-16T00:13:10;95706.50;;;4.79;53.96
55466;BME280;41329;41.594;23.810;2024-02-16T00:15:37;95727.28;;;4.80;54.03
55466;BME280;41329;41.594;23.810;2024-02-16T00:18:07;95728.25;;;4.76;54.04
55466;BME280;41329;41.594;23.810;2024-02-16T00:20:33;95711.84;;;4.59;53.72
55466;BME280;41329;41.594;23.810;2024-02-16T00:22:58;95742.47;;;4.69;54.76
55466;BME280;41329;41.594;23.810;2024-02-16T00:25:25;95736.69;;;4.62;55.78
55466;BME280;41329;41.594;23.810;2024-02-16T00:27:50;95731.84;;;4.59;56.26
55466;BME280;41329;41.594;23.810;2024-02-16T00:30:21;95741.03;;;4.55;56.59
55466;BME280;41329;41.594;23.810;2024-02-16T00:32:47;95716.38;;;4.46;56.93
55466;BME280;41329;41.594;23.810;2024-02-16T00:35:14;95740.53;;;4.61;57.08
55466;BME280;41329;41.594;23.810;2024-02-16T00:37:41;95733.63;;;4.55;56.99
55466;BME280;41329;41.594;23.810;2024-02-16T00:40:07;95731.22;;;4.45;55.52
55466;BME280;41329;41.594;23.810;2024-02-16T00:42:33;95734.44;;;4.47;55.13
55466;BME280;41329;41.594;23.810;2024-02-16T00:44:58;95739.91;;;4.47;55.30
55466;BME280;41329;41.594;23.810;2024-02-16T00:47:26;95740.72;;;4.39;55.13
55466;BME280;41329;41.594;23.810;2024-02-16T00:49:55;95732.34;;;4.36;55.54
55466;BME280;41329;41.594;23.810;2024-02-16T00:52:21;95738.31;;;4.29;56.46
55466;BME280;41329;41.594;23.810;2024-02-16T00:54:48;95716.06;;;4.05;56.73
55466;BME280;41329;41.594;23.810;2024-02-16T00:57:13;95731.34;;;4.06;55.95
55466;BME280;41329;41.594;23.810;2024-02-16T00:59:40;95745.56;;;4.08;55.75
55466;BME280;41329;41.594;23.810;2024-02-16T01:02:05;95739.25;;;3.99;56.47
55466;BME280;41329;41.594;23.810;2024-02-16T01:04:31;95734.25;;;3.93;56.91
55466;BME280;41329;41.594;23.810;2024-02-16T01:06:56;95741.50;;;3.97;56.97
55466;BME280;41329;41.594;23.810;2024-02-16T01:09:22;95729.72;;;3.97;57.05
55466;BME280;41329;41.594;23.810;2024-02-16T01:11:47;95736.53;;;3.99;57.13
55466;BME280;41329;41.594;23.810;2024-02-16T01:14:13;95737.47;;;3.95;57.19
55466;BME280;41329;41.594;23.810;2024-02-16T01:16:38;95745.22;;;3.93;57.49
55466;BME280;41329;41.594;23.810;2024-02-16T01:19:03;95741.63;;;3.84;57.28
55466;BME280;41329;41.594;23.810;2024-02-16T01:21:31;95713.28;;;3.71;57.44
55466;BME280;41329;41.594;23.810;2024-02-16T01:23:56;95739.41;;;3.86;58.05
55466;BME280;41329;41.594;23.810;2024-02-16T01:26:24;95723.75;;;3.78;58.04
55466;BME280;41329;41.594;23.810;2024-02-16T01:28:50;95723.75;;;3.78;57.76
55466;BME280;41329;41.594;23.810;2024-02-16T01:31:15;95718.75;;;3.80;58.07
55466;BME280;41329;41.594;23.810;2024-02-16T01:33:40;95734.91;;;3.90;58.41
55466;BME280;41329;41.594;23.810;2024-02-16T01:36:06;95734.72;;;3.86;58.21
55466;BME280;41329;41.594;23.810;2024-02-16T01:38:31;95734.06;;;3.89;57.99
55466;BME280;41329;41.594;23.810;2024-02-16T01:40:57;95728.59;;;3.89;57.75
55466;BME280;41329;41.594;23.810;2024-02-16T01:43:22;95726.19;;;3.88;57.88
55466;BME280;41329;41.594;23.810;2024-02-16T01:45:48;95719.59;;;3.89;57.98
55466;BME280;41329;41.594;23.810;2024-02-16T01:48:14;95671.09;;;3.55;57.82
55466;BME280;41329;41.594;23.810;2024-02-16T01:50:43;95727.81;;;3.89;58.31
55466;BME280;41329;41.594;23.810;2024-02-16T01:53:09;95723.13;;;3.89;58.25
55466;BME280;41329;41.594;23.810;2024-02-16T01:55:35;95707.03;;;3.79;58.42
55466;BME280;41329;41.594;23.810;2024-02-16T01:58:00;95708.63;;;3.80;58.53
55466;BME280;41329;41.594;23.810;2024-02-16T02:00:26;95715.06;;;3.84;58.41
55466;BME280;41329;41.594;23.810;2024-02-16T02:02:51;95722.94;;;3.77;57.90
55466;BME280;41329;41.594;23.810;2024-02-16T02:05:17;95708.13;;;3.70;57.82
55466;BME280;41329;41.594;23.810;2024-02-16T02:07:43;95720.22;;;3.69;58.37
55466;BME280;41329;41.594;23.810;2024-02-16T02:10:09;95712.31;;;3.67;59.00
55466;BME280;41329;41.594;23.810;2024-02-16T02:12:34;95712.78;;;3.69;59.19
55466;BME280;41329;41.594;23.810;2024-02-16T02:15:00;95707.81;;;3.71;58.77
55466;BME280;41329;41.594;23.810;2024-02-16T02:17:25;95684.44;;;3.57;58.68
55466;BME280;41329;41.594;23.810;2024-02-16T02:19:51;95712.00;;;3.69;58.55
55466;BME280;41329;41.594;23.810;2024-02-16T02:22:20;95697.50;;;3.60;58.42
55466;BME280;41329;41.594;23.810;2024-02-16T02:24:46;95713.09;;;3.59;58.28
55466;BME280;41329;41.594;23.810;2024-02-16T02:27:12;95659.59;;;3.19;58.21
55466;BME280;41329;41.594;23.810;2024-02-16T02:29:38;95713.72;;;3.48;58.33
55466;BME280;41329;41.594;23.810;2024-02-16T02:32:04;95689.25;;;3.04;58.68
55466;BME280;41329;41.594;23.810;2024-02-16T02:34:30;95708.13;;;3.14;59.11
55466;BME280;41329;41.594;23.810;2024-02-16T02:36:55;95701.50;;;3.06;59.63
55466;BME280;41329;41.594;23.810;2024-02-16T02:39:21;95690.38;;;2.94;60.04
55466;BME280;41329;41.594;23.810;2024-02-16T02:41:46;95698.91;;;3.01;60.43
55466;BME280;41329;41.594;23.810;2024-02-16T02:44:12;95692.66;;;3.01;60.26
55466;BME280;41329;41.594;23.810;2024-02-16T02:46:38;95687.81;;;2.98;60.05
55466;BME280;41329;41.594;23.810;2024-02-16T02:49:03;95703.22;;;2.94;59.94
55466;BME280;41329;41.594;23.810;2024-02-16T02:51:29;95644.69;;;2.56;59.55
55466;BME280;41329;41.594;23.810;2024-02-16T02:53:54;95679.31;;;2.69;60.09
55466;BME280;41329;41.594;23.810;2024-02-16T02:56:20;95707.84;;;2.85;60.40
55466;BME280;41329;41.594;23.810;2024-02-16T02:58:45;95694.44;;;2.75;60.83
55466;BME280;41329;41.594;23.810;2024-02-16T03:01:12;95711.38;;;2.85;60.98
55466;BME280;41329;41.594;23.810;2024-02-16T03:03:38;95704.13;;;2.81;60.64
55466;BME280;41329;41.594;23.810;2024-02-16T03:06:04;95666.78;;;2.46;61.17
55466;BME280;41329;41.594;23.810;2024-02-16T03:08:29;95709.53;;;2.72;61.36
55466;BME280;41329;41.594;23.810;2024-02-16T03:10:55;95706.00;;;2.72;61.08
55466;BME280;41329;41.594;23.810;2024-02-16T03:13:20;95694.53;;;2.61;61.30
55466;BME280;41329;41.594;23.810;2024-02-16T03:15:46;95714.50;;;2.70;61.62
55466;BME280;41329;41.594;23.810;2024-02-16T03:18:11;95713.38;;;2.71;61.69
55466;BME280;41329;41.594;23.810;2024-02-16T03:20:36;95698.34;;;2.52;62.38
55466;BME280;41329;41.594;23.810;2024-02-16T03:23:02;95709.28;;;2.60;62.89
55466;BME280;41329;41.594;23.810;2024-02-16T03:25:28;95720.47;;;2.72;63.14
55466;BME280;41329;41.594;23.810;2024-02-16T03:27:53;95717.28;;;2.48;63.10
55466;BME280;41329;41.594;23.810;2024-02-16T03:30:19;95715.75;;;2.64;62.56
55466;BME280;41329;41.594;23.810;2024-02-16T03:32:51;95718.84;;;2.71;62.11
55466;BME280;41329;41.594;23.810;2024-02-16T03:35:17;95726.44;;;2.74;62.10
55466;BME280;41329;41.594;23.810;2024-02-16T03:37:43;95703.97;;;2.55;62.12
55466;BME280;41329;41.594;23.810;2024-02-16T03:40:08;95720.28;;;2.69;61.91
55466;BME280;41329;41.594;23.810;2024-02-16T03:42:35;95711.91;;;2.65;61.70
55466;BME280;41329;41.594;23.810;2024-02-16T03:45:02;95712.16;;;2.55;61.53
55466;BME280;41329;41.594;23.810;2024-02-16T03:47:27;95740.34;;;2.64;61.48
55466;BME280;41329;41.594;23.810;2024-02-16T03:49:53;95745.38;;;2.49;61.10
55466;BME280;41329;41.594;23.810;2024-02-16T03:52:18;95738.44;;;2.43;61.18
55466;BME280;41329;41.594;23.810;2024-02-16T03:54:44;95732.91;;;2.34;61.25
55466;BME280;41329;41.594;23.810;2024-02-16T03:57:12;95753.53;;;2.40;61.56
55466;BME280;41329;41.594;23.810;2024-02-16T03:59:38;95732.47;;;2.19;61.27
55466;BME280;41329;41.594;23.810;2024-02-16T04:02:04;95755.19;;;2.28;61.25
55466;BME280;41329;41.594;23.810;2024-02-16T04:04:30;95753.56;;;2.27;61.24
55466;BME280;41329;41.594;23.810;2024-02-16T04:06:55;95755.00;;;2.24;61.56
55466;BME280;41329;41.594;23.810;2024-02-16T04:09:20;95759.84;;;2.27;61.86
55466;BME280;41329;41.594;23.810;2024-02-16T04:11:46;95748.09;;;2.27;61.72
55466;BME280;41329;41.594;23.810;2024-02-16T04:14:12;95748.72;;;2.24;61.85
55466;BME280;41329;41.594;23.810;2024-02-16T04:16:37;95750.97;;;2.22;61.81
55466;BME280;41329;41.594;23.810;2024-02-16T04:19:02;95728.06;;;2.09;62.44
55466;BME280;41329;41.594;23.810;2024-02-16T04:21:28;95756.59;;;2.25;62.51
55466;BME280;41329;41.594;23.810;2024-02-16T04:23:53;95752.13;;;2.29;62.97
55466;BME280;41329;41.594;23.810;2024-02-16T04:26:19;95755.38;;;2.31;63.17
55466;BME280;41329;41.594;23.810;2024-02-16T04:28:44;95748.94;;;2.27;63.01
55466;BME280;41329;41.594;23.810;2024-02-16T04:31:10;95748.81;;;2.32;63.06
55466;BME280;41329;41.594;23.810;2024-02-16T04:33:35;95754.69;;;2.26;62.80
55466;BME280;41329;41.594;23.810;2024-02-16T04:36:00;95758.00;;;2.36;63.11
55466;BME280;41329;41.594;23.810;2024-02-16T04:38:26;95759.28;;;2.39;63.13
55466;BME280;41329;41.594;23.810;2024-02-16T04:40:51;95756.91;;;2.46;63.21
55466;BME280;41329;41.594;23.810;2024-02-16T04:43:16;95761.28;;;2.47;63.26
55466;BME280;41329;41.594;23.810;2024-02-16T04:45:42;95759.72;;;2.54;63.23
55466;BME280;41329;41.594;23.810;2024-02-16T04:48:08;95743.59;;;2.44;62.96
55466;BME280;41329;41.594;23.810;2024-02-16T04:50:34;95703.25;;;2.19;62.32
55466;BME280;41329;41.594;23.810;2024-02-16T04:53:00;95711.53;;;2.14;62.26
55466;BME280;41329;41.594;23.810;2024-02-16T04:55:28;95731.84;;;2.22;61.48
55466;BME280;41329;41.594;23.810;2024-02-16T04:57:55;95759.84;;;2.27;61.10
55466;BME280;41329;41.594;23.810;2024-02-16T05:00:20;95759.63;;;2.24;60.94
55466;BME280;41329;41.594;23.810;2024-02-16T05:02:46;95750.56;;;2.15;61.04
55466;BME280;41329;41.594;23.810;2024-02-16T05:05:12;95705.31;;;1.78;61.49
55466;BME280;41329;41.594;23.810;2024-02-16T05:07:37;95757.94;;;2.14;62.36
55466;BME280;41329;41.594;23.810;2024-02-16T05:10:03;95763.09;;;2.16;63.21
55466;BME280;41329;41.594;23.810;2024-02-16T05:12:28;95769.06;;;2.18;62.91
55466;BME280;41329;41.594;23.810;2024-02-16T05:14:54;95740.22;;;2.03;62.65
55466;BME280;41329;41.594;23.810;2024-02-16T05:17:20;95773.41;;;2.19;62.15
55466;BME280;41329;41.594;23.810;2024-02-16T05:19:47;95766.34;;;2.18;62.10
55466;BME280;41329;41.594;23.810;2024-02-16T05:22:13;95768.56;;;2.16;61.75
55466;BME280;41329;41.594;23.810;2024-02-16T05:24:39;95749.00;;;2.00;61.59
55466;BME280;41329;41.594;23.810;2024-02-16T05:27:04;95771.22;;;2.07;62.06
55466;BME280;41329;41.594;23.810;2024-02-16T05:29:29;95768.00;;;2.05;62.55
55466;BME280;41329;41.594;23.810;2024-02-16T05:31:55;95762.22;;;2.07;63.04
55466;BME280;41329;41.594;23.810;2024-02-16T05:34:20;95773.25;;;2.02;63.17
55466;BME280;41329;41.594;23.810;2024-02-16T05:36:46;95759.53;;;1.93;63.20
55466;BME280;41329;41.594;23.810;2024-02-16T05:39:11;95757.56;;;1.85;63.19
55466;BME280;41329;41.594;23.810;2024-02-16T05:41:51;95770.56;;;1.88;63.54
55466;BME280;41329;41.594;23.810;2024-02-16T05:44:16;95768.34;;;1.90;64.01
55466;BME280;41329;41.594;23.810;2024-02-16T05:46:44;95715.56;;;1.59;64.43
55466;BME280;41329;41.594;23.810;2024-02-16T05:49:09;95781.03;;;2.08;64.69
55466;BME280;41329;41.594;23.810;2024-02-16T05:51:36;95777.06;;;2.14;65.10
55466;BME280;41329;41.594;23.810;2024-02-16T05:54:02;95785.25;;;2.14;64.56
55466;BME280;41329;41.594;23.810;2024-02-16T05:56:28;95782.22;;;2.16;64.31
55466;BME280;41329;41.594;23.810;2024-02-16T05:58:54;95793.22;;;2.24;64.37
55466;BME280;41329;41.594;23.810;2024-02-16T06:01:19;95781.59;;;2.19;64.58
55466;BME280;41329;41.594;23.810;2024-02-16T06:03:44;95798.84;;;2.28;64.67
55466;BME280;41329;41.594;23.810;2024-02-16T06:06:10;95797.50;;;2.17;64.62
55466;BME280;41329;41.594;23.810;2024-02-16T06:08:35;95806.75;;;2.29;65.02
55466;BME280;41329;41.594;23.810;2024-02-16T06:11:00;95810.63;;;2.15;64.76
55466;BME280;41329;41.594;23.810;2024-02-16T06:13:27;95792.13;;;2.12;64.59
55466;BME280;41329;41.594;23.810;2024-02-16T06:15:54;95796.69;;;2.16;64.60
55466;BME280;41329;41.594;23.810;2024-02-16T06:18:20;95819.41;;;2.25;65.17
55466;BME280;41329;41.594;23.810;2024-02-16T06:20:45;95806.03;;;2.24;65.72
55466;BME280;41329;41.594;23.810;2024-02-16T06:23:11;95805.47;;;2.13;65.73
55466;BME280;41329;41.594;23.810;2024-02-16T06:25:36;95804.28;;;2.06;65.77
55466;BME280;41329;41.594;23.810;2024-02-16T06:28:02;95824.47;;;2.18;65.24
55466;BME280;41329;41.594;23.810;2024-02-16T06:30:29;95806.88;;;2.24;65.11
55466;BME280;41329;41.594;23.810;2024-02-16T06:32:55;95818.84;;;2.37;65.06
55466;BME280;41329;41.594;23.810;2024-02-16T06:35:20;95824.03;;;2.25;65.19
55466;BME280;41329;41.594;23.810;2024-02-16T06:37:46;95831.63;;;2.28;65.04
55466;BME280;41329;41.594;23.810;2024-02-16T06:40:11;95818.66;;;2.33;65.38
55466;BME280;41329;41.594;23.810;2024-02-16T06:42:37;95826.16;;;2.28;65.40
55466;BME280;41329;41.594;23.810;2024-02-16T06:45:04;95832.66;;;2.18;66.23
55466;BME280;41329;41.594;23.810;2024-02-16T06:47:31;95804.41;;;1.87;66.86
55466;BME280;41329;41.594;23.810;2024-02-16T06:49:56;95827.56;;;1.90;67.33
55466;BME280;41329;41.594;23.810;2024-02-16T06:52:22;95812.19;;;1.94;67.46
55466;BME280;41329;41.594;23.810;2024-02-16T06:54:47;95833.00;;;1.90;67.75
55466;BME280;41329;41.594;23.810;2024-02-16T06:57:14;95826.53;;;1.86;68.16
55466;BME280;41329;41.594;23.810;2024-02-16T06:59:39;95834.72;;;1.86;68.85
55466;BME280;41329;41.594;23.810;2024-02-16T07:02:05;95799.59;;;1.71;69.43
55466;BME280;41329;41.594;23.810;2024-02-16T07:04:32;95825.00;;;2.07;69.68
55466;BME280;41329;41.594;23.810;2024-02-16T07:06:58;95822.72;;;2.22;69.61
55466;BME280;41329;41.594;23.810;2024-02-16T07:09:23;95815.59;;;2.48;69.82
55466;BME280;41329;41.594;23.810;2024-02-16T07:11:49;95834.47;;;2.80;70.52
55466;BME280;41329;41.594;23.810;2024-02-16T07:14:16;95821.78;;;3.06;70.72
55466;BME280;41329;41.594;23.810;2024-02-16T07:16:41;95829.44;;;3.26;69.64
55466;BME280;41329;41.594;23.810;2024-02-16T07:19:06;95824.81;;;3.27;68.35
55466;BME280;41329;41.594;23.810;2024-02-16T07:21:32;95828.69;;;3.34;67.90
55466;BME280;41329;41.594;23.810;2024-02-16T07:23:57;95806.56;;;3.14;66.96
55466;BME280;41329;41.594;23.810;2024-02-16T07:26:23;95815.19;;;3.38;67.57
55466;BME280;41329;41.594;23.810;2024-02-16T07:28:49;95820.03;;;3.41;67.09
55466;BME280;41329;41.594;23.810;2024-02-16T07:31:14;95816.75;;;3.61;67.77
55466;BME280;41329;41.594;23.810;2024-02-16T07:33:40;95810.44;;;3.52;66.96
55466;BME280;41329;41.594;23.810;2024-02-16T07:36:05;95800.34;;;3.61;67.20
55466;BME280;41329;41.594;23.810;2024-02-16T07:38:31;95818.41;;;3.79;67.54
55466;BME280;41329;41.594;23.810;2024-02-16T07:40:56;95813.25;;;3.69;67.14
55466;BME280;41329;41.594;23.810;2024-02-16T07:43:22;95819.66;;;3.64;67.18
55466;BME280;41329;41.594;23.810;2024-02-16T07:45:49;95814.38;;;3.68;67.72
55466;BME280;41329;41.594;23.810;2024-02-16T07:48:15;95816.50;;;3.88;67.66
55466;BME280;41329;41.594;23.810;2024-02-16T07:50:40;95812.19;;;3.95;67.75
55466;BME280;41329;41.594;23.810;2024-02-16T07:53:06;95816.78;;;4.25;67.99
55466;BME280;41329;41.594;23.810;2024-02-16T07:55:32;95816.59;;;4.39;67.91
55466;BME280;41329;41.594;23.810;2024-02-16T07:57:57;95813.72;;;4.52;67.20
55466;BME280;41329;41.594;23.810;2024-02-16T08:00:24;95807.28;;;4.57;65.90
55466;BME280;41329;41.594;23.810;2024-02-16T08:02:50;95810.00;;;4.82;66.76
55466;BME280;41329;41.594;23.810;2024-02-16T08:05:15;95816.59;;;5.07;66.97
55466;BME280;41329;41.594;23.810;2024-02-16T08:07:44;95808.34;;;5.24;67.09
55466;BME280;41329;41.594;23.810;2024-02-16T08:10:10;95797.81;;;5.34;65.27
55466;BME280;41329;41.594;23.810;2024-02-16T08:12:36;95811.81;;;5.41;63.68
55466;BME280;41329;41.594;23.810;2024-02-16T08:15:02;95799.88;;;5.46;63.29
55466;BME280;41329;41.594;23.810;2024-02-16T08:17:29;95808.25;;;5.49;62.99
55466;BME280;41329;41.594;23.810;2024-02-16T08:19:55;95817.25;;;5.67;63.74
55466;BME280;41329;41.594;23.810;2024-02-16T08:22:21;95788.38;;;5.52;62.94
55466;BME280;41329;41.594;23.810;2024-02-16T08:24:46;95788.06;;;5.54;63.36
55466;BME280;41329;41.594;23.810;2024-02-16T08:27:12;95810.28;;;5.69;63.78
55466;BME280;41329;41.594;23.810;2024-02-16T08:29:41;95797.19;;;5.66;63.27
55466;BME280;41329;41.594;23.810;2024-02-16T08:32:06;95807.69;;;5.81;62.74
55466;BME280;41329;41.594;23.810;2024-02-16T08:34:32;95814.25;;;5.89;62.27
55466;BME280;41329;41.594;23.810;2024-02-16T08:36:57;95810.31;;;6.07;63.41
55466;BME280;41329;41.594;23.810;2024-02-16T08:39:23;95803.75;;;6.20;62.42
55466;BME280;41329;41.594;23.810;2024-02-16T08:41:51;95807.72;;;6.31;62.55
55466;BME280;41329;41.594;23.810;2024-02-16T08:44:16;95788.06;;;6.20;61.64
55466;BME280;41329;41.594;23.810;2024-02-16T08:46:41;95789.22;;;6.40;61.90
55466;BME280;41329;41.594;23.810;2024-02-16T08:49:07;95785.97;;;6.67;62.43
55466;BME280;41329;41.594;23.810;2024-02-16T08:51:33;95804.66;;;6.74;60.00
55466;BME280;41329;41.594;23.810;2024-02-16T08:53:59;95778.75;;;6.75;60.78
55466;BME280;41329;41.594;23.810;2024-02-16T08:56:25;95805.56;;;7.19;60.23
55466;BME280;41329;41.594;23.810;2024-02-16T08:58:50;95796.38;;;7.15;58.53
55466;BME280;41329;41.594;23.810;2024-02-16T09:01:16;95810.28;;;7.30;58.64
55466;BME280;41329;41.594;23.810;2024-02-16T09:03:42;95782.09;;;7.33;59.40
55466;BME280;41329;41.594;23.810;2024-02-16T09:06:07;95802.25;;;7.70;58.16
55466;BME280;41329;41.594;23.810;2024-02-16T09:08:33;95794.44;;;7.84;58.24
55466;BME280;41329;41.594;23.810;2024-02-16T09:11:04;95775.66;;;7.86;58.91
55466;BME280;41329;41.594;23.810;2024-02-16T09:13:33;95798.72;;;8.29;59.29
55466;BME280;41329;41.594;23.810;2024-02-16T09:15:59;95782.66;;;8.31;58.08
55466;BME280;41329;41.594;23.810;2024-02-16T09:18:25;95791.59;;;8.52;57.24
55466;BME280;41329;41.594;23.810;2024-02-16T09:20:51;95783.25;;;8.76;58.07
55466;BME280;41329;41.594;23.810;2024-02-16T09:23:16;95793.41;;;9.00;55.03
55466;BME280;41329;41.594;23.810;2024-02-16T09:25:41;95782.16;;;8.93;53.28
55466;BME280;41329;41.594;23.810;2024-02-16T09:28:08;95776.59;;;9.05;54.71
55466;BME280;41329;41.594;23.810;2024-02-16T09:30:34;95765.31;;;9.10;53.14
55466;BME280;41329;41.594;23.810;2024-02-16T09:32:59;95760.91;;;9.36;53.39
55466;BME280;41329;41.594;23.810;2024-02-16T09:35:25;95759.34;;;9.66;53.83
55466;BME280;41329;41.594;23.810;2024-02-16T09:37:50;95770.25;;;9.90;52.27
55466;BME280;41329;41.594;23.810;2024-02-16T09:40:15;95767.00;;;10.04;49.57
55466;BME280;41329;41.594;23.810;2024-02-16T09:42:48;95752.22;;;10.12;50.26
55466;BME280;41329;41.594;23.810;2024-02-16T09:45:15;95753.56;;;10.33;47.45
55466;BME280;41329;41.594;23.810;2024-02-16T09:47:42;95748.06;;;10.18;47.52
55466;BME280;41329;41.594;23.810;2024-02-16T09:50:09;95750.06;;;10.36;48.93
55466;BME280;41329;41.594;23.810;2024-02-16T09:52:36;95732.72;;;10.55;48.96
55466;BME280;41329;41.594;23.810;2024-02-16T09:55:02;95732.78;;;10.58;48.07
55466;BME280;41329;41.594;23.810;2024-02-16T09:57:27;95733.44;;;10.71;49.79
55466;BME280;41329;41.594;23.810;2024-02-16T09:59:53;95729.41;;;10.84;47.81
55466;BME280;41329;41.594;23.810;2024-02-16T10:02:18;95733.03;;;11.07;45.80
55466;BME280;41329;41.594;23.810;2024-02-16T10:04:44;95717.19;;;11.26;46.82
55466;BME280;41329;41.594;23.810;2024-02-16T10:07:09;95724.66;;;11.45;44.51
55466;BME280;41329;41.594;23.810;2024-02-16T10:09:35;95697.47;;;11.50;46.01
55466;BME280;41329;41.594;23.810;2024-02-16T10:12:01;95707.19;;;11.60;44.49
55466;BME280;41329;41.594;23.810;2024-02-16T10:14:26;95699.91;;;11.74;43.85
55466;BME280;41329;41.594;23.810;2024-02-16T10:17:00;95682.78;;;11.69;42.04
55466;BME280;41329;41.594;23.810;2024-02-16T10:19:28;95686.84;;;11.75;42.30
55466;BME280;41329;41.594;23.810;2024-02-16T10:21:53;95691.09;;;11.91;44.03
55466;BME280;41329;41.594;23.810;2024-02-16T10:24:21;95682.94;;;12.02;43.07
55466;BME280;41329;41.594;23.810;2024-02-16T10:26:47;95678.94;;;11.99;43.62
55466;BME280;41329;41.594;23.810;2024-02-16T10:29:17;95683.41;;;12.07;42.34
55466;BME280;41329;41.594;23.810;2024-02-16T10:31:45;95662.28;;;11.99;43.06
55466;BME280;41329;41.594;23.810;2024-02-16T10:34:11;95683.63;;;12.21;42.47
55466;BME280;41329;41.594;23.810;2024-02-16T10:36:37;95666.75;;;12.07;41.43
55466;BME280;41329;41.594;23.810;2024-02-16T10:39:04;95674.13;;;12.22;42.46
55466;BME280;41329;41.594;23.810;2024-02-16T10:41:34;95640.75;;;12.45;44.06
55466;BME280;41329;41.594;23.810;2024-02-16T10:44:01;95666.66;;;12.86;41.17
55466;BME280;41329;41.594;23.810;2024-02-16T10:46:27;95662.25;;;13.11;43.33
55466;BME280;41329;41.594;23.810;2024-02-16T10:48:52;95658.72;;;13.14;40.22
55466;BME280;41329;41.594;23.810;2024-02-16T10:51:31;95651.34;;;13.32;39.88
55466;BME280;41329;41.594;23.810;2024-02-16T10:54:01;95649.16;;;13.51;38.89
55466;BME280;41329;41.594;23.810;2024-02-16T10:56:31;95647.59;;;13.54;40.80
55466;BME280;41329;41.594;23.810;2024-02-16T10:58:59;95647.31;;;13.66;40.14
55466;BME280;41329;41.594;23.810;2024-02-16T11:01:25;95640.16;;;13.65;39.50
55466;BME280;41329;41.594;23.810;2024-02-16T11:04:00;95636.13;;;13.59;38.34
55466;BME280;41329;41.594;23.810;2024-02-16T11:06:26;95613.09;;;13.58;39.18
55466;BME280;41329;41.594;23.810;2024-02-16T11:08:52;95628.31;;;13.75;40.18
55466;BME280;41329;41.594;23.810;2024-02-16T11:11:23;95618.53;;;13.91;39.08
55466;BME280;41329;41.594;23.810;2024-02-16T11:13:49;95631.03;;;14.15;38.34
55466;BME280;41329;41.594;23.810;2024-02-16T11:16:17;95628.66;;;14.17;39.05
55466;BME280;41329;41.594;23.810;2024-02-16T11:18:43;95605.91;;;14.04;39.47
55466;BME280;41329;41.594;23.810;2024-02-16T11:21:15;95616.03;;;14.30;38.39
55466;BME280;41329;41.594;23.810;2024-02-16T11:23:41;95612.16;;;14.48;39.22
55466;BME280;41329;41.594;23.810;2024-02-16T11:26:12;95591.84;;;14.41;39.33
55466;BME280;41329;41.594;23.810;2024-02-16T11:28:39;95590.28;;;14.43;38.66
55466;BME280;41329;41.594;23.810;2024-02-16T11:31:05;95603.88;;;14.55;38.03
55466;BME280;41329;41.594;23.810;2024-02-16T11:33:32;95583.09;;;14.39;38.42
55466;BME280;41329;41.594;23.810;2024-02-16T11:35:59;95589.59;;;14.71;39.35
55466;BME280;41329;41.594;23.810;2024-02-16T11:38:25;95572.97;;;14.88;37.50
55466;BME280;41329;41.594;23.810;2024-02-16T11:41:04;95583.38;;;15.02;37.08
55466;BME280;41329;41.594;23.810;2024-02-16T11:43:30;95569.38;;;14.84;37.63
55466;BME280;41329;41.594;23.810;2024-02-16T11:45:57;95576.56;;;14.92;36.36
55466;BME280;41329;41.594;23.810;2024-02-16T11:48:26;95578.50;;;14.85;38.07
55466;BME280;41329;41.594;23.810;2024-02-16T11:51:04;95570.22;;;15.02;38.21
55466;BME280;41329;41.594;23.810;2024-02-16T11:53:30;95572.63;;;15.18;37.83
55466;BME280;41329;41.594;23.810;2024-02-16T11:55:56;95578.31;;;15.42;36.64
55466;BME280;41329;41.594;23.810;2024-02-16T11:58:22;95567.53;;;15.55;37.49
55466;BME280;41329;41.594;23.810;2024-02-16T12:00:49;95567.56;;;15.79;36.53
55466;BME280;41329;41.594;23.810;2024-02-16T12:03:22;95567.13;;;16.05;35.54
55466;BME280;41329;41.594;23.810;2024-02-16T12:05:52;95552.38;;;16.05;34.45
55466;BME280;41329;41.594;23.810;2024-02-16T12:08:18;95557.16;;;15.90;34.97
55466;BME280;41329;41.594;23.810;2024-02-16T12:10:44;95536.06;;;15.96;35.11
55466;BME280;41329;41.594;23.810;2024-02-16T12:13:10;95553.56;;;16.11;33.73
55466;BME280;41329;41.594;23.810;2024-02-16T12:15:38;95533.63;;;15.98;32.28
55466;BME280;41329;41.594;23.810;2024-02-16T12:18:03;95558.38;;;16.07;33.56
55466;BME280;41329;41.594;23.810;2024-02-16T12:20:30;95548.38;;;16.20;35.27
55466;BME280;41329;41.594;23.810;2024-02-16T12:22:57;95544.31;;;16.35;33.41
55466;BME280;41329;41.594;23.810;2024-02-16T12:25:25;95545.91;;;16.43;34.28
55466;BME280;41329;41.594;23.810;2024-02-16T12:27:50;95534.72;;;16.53;33.23
55466;BME280;41329;41.594;23.810;2024-02-16T12:30:16;95542.63;;;16.72;34.22
55466;BME280;41329;41.594;23.810;2024-02-16T12:32:41;95536.63;;;16.77;32.78
55466;BME280;41329;41.594;23.810;2024-02-16T12:35:07;95539.75;;;16.86;33.20
55466;BME280;41329;41.594;23.810;2024-02-16T12:37:33;95543.66;;;17.03;33.11
55466;BME280;41329;41.594;23.810;2024-02-16T12:40:00;95529.28;;;17.04;33.71
55466;BME280;41329;41.594;23.810;2024-02-16T12:42:26;95537.91;;;17.31;33.06
55466;BME280;41329;41.594;23.810;2024-02-16T12:44:52;95533.06;;;17.42;33.39
55466;BME280;41329;41.594;23.810;2024-02-16T12:47:17;95532.47;;;17.68;32.56
55466;BME280;41329;41.594;23.810;2024-02-16T12:49:42;95528.91;;;17.64;30.85
55466;BME280;41329;41.594;23.810;2024-02-16T12:52:08;95514.19;;;17.53;31.86